Time,TemperatureF,DewpointF,PressureIn,WindDirection,WindDirectionDegrees,WindSpeedMPH,WindSpeedGustMPH,Humidity,HourlyPrecipIn,Conditions,Clouds,dailyrainin,SolarRadiationWatts/m^2,SoftwareType,DateUTC
2013-04-17 00:03:00,60.0,59.0,-100.00,ESE,113,1.0,4.0,98,0.00,,,0.00,0.000000,,2013-04-17 04:03:00,
2013-04-17 00:13:00,60.0,59.0,-100.00,ESE,113,1.0,4.0,98,0.00,,,0.00,0.000000,,2013-04-17 04:13:00,
2013-04-17 00:43:00,58.0,58.0,-100.00,ESE,112,2.0,3.0,99,0.00,,,0.00,0.000000,,2013-04-17 04:43:00,
2013-04-17 00:53:00,58.0,58.0,-100.00,ESE,112,2.0,3.0,99,0.00,,,0.00,0.000000,,2013-04-17 04:53:00,
2013-04-17 01:03:00,58.0,58.0,-100.00,ESE,112,2.0,3.0,99,0.00,,,0.00,0.000000,,2013-04-17 05:03:00,
2013-04-17 01:12:00,58.0,58.0,-100.00,ESE,112,2.0,3.0,99,0.00,,,0.00,0.000000,,2013-04-17 05:12:00,
2013-04-17 01:32:00,56.0,56.0,-100.00,ESE,112,0.0,3.0,100,0.00,,,0.00,0.000000,,2013-04-17 05:32:00,
2013-04-17 01:43:00,56.0,56.0,-100.00,ESE,112,0.0,3.0,100,0.00,,,0.00,0.000000,,2013-04-17 05:43:00,
2013-04-17 01:52:00,56.0,56.0,-100.00,ESE,112,0.0,3.0,100,0.00,,,0.00,0.000000,,2013-04-17 05:52:00,
2013-04-17 02:02:00,56.0,56.0,-100.00,ESE,112,0.0,3.0,100,0.00,,,0.00,0.000000,,2013-04-17 06:02:00,
2013-04-17 02:12:00,56.0,56.0,-100.00,ESE,112,0.0,3.0,100,0.00,,,0.00,0.000000,,2013-04-17 06:12:00,
2013-04-17 02:32:00,55.0,55.0,-100.00,ESE,112,0.0,0.0,100,0.00,,,0.00,0.000000,,2013-04-17 06:32:00,
2013-04-17 02:42:00,55.0,55.0,-100.00,ESE,112,0.0,0.0,100,0.00,,,0.00,0.000000,,2013-04-17 06:42:00,
2013-04-17 02:52:00,55.0,55.0,-100.00,ESE,112,0.0,0.0,100,0.00,,,0.00,0.000000,,2013-04-17 06:52:00,
2013-04-17 03:02:00,55.0,55.0,-100.00,ESE,112,0.0,0.0,100,0.00,,,0.00,0.000000,,2013-04-17 07:02:00,
2013-04-17 03:12:00,55.0,55.0,-100.00,ESE,112,0.0,0.0,100,0.00,,,0.00,0.000000,,2013-04-17 07:12:00,
2013-04-17 03:42:00,54.0,54.0,-100.00,ESE,112,0.0,0.0,100,0.00,,,0.00,0.000000,,2013-04-17 07:42:00,
2013-04-17 03:52:00,54.0,54.0,-100.00,ESE,112,0.0,0.0,100,0.00,,,0.00,0.000000,,2013-04-17 07:52:00,
2013-04-17 04:02:00,54.0,54.0,-100.00,ESE,112,0.0,0.0,100,0.00,,,0.00,0.000000,,2013-04-17 08:02:00,
2013-04-17 04:12:00,54.0,54.0,-100.00,ESE,112,0.0,0.0,100,0.00,,,0.00,0.000000,,2013-04-17 08:12:00,
2013-04-17 04:42:00,53.0,53.0,-100.00,ESE,112,0.0,0.0,100,0.00,,,0.00,0.000000,,2013-04-17 08:42:00,
2013-04-17 04:52:00,53.0,53.0,-100.00,ESE,112,0.0,0.0,100,0.00,,,0.00,0.000000,,2013-04-17 08:52:00,
2013-04-17 05:02:00,53.0,53.0,-100.00,ESE,112,0.0,0.0,100,0.00,,,0.00,0.000000,,2013-04-17 09:02:00,
2013-04-17 05:12:00,53.0,53.0,-100.00,ESE,112,0.0,0.0,100,0.00,,,0.00,0.000000,,2013-04-17 09:12:00,
2013-04-17 05:42:00,52.0,52.0,-100.00,ESE,104,0.0,1.0,100,0.00,,,0.00,0.000000,,2013-04-17 09:42:00,
2013-04-17 05:53:00,52.0,52.0,-100.00,ESE,104,0.0,1.0,100,0.00,,,0.00,0.000000,,2013-04-17 09:53:00,
2013-04-17 06:03:00,52.0,52.0,-100.00,ESE,104,0.0,1.0,100,0.00,,,0.00,0.000000,,2013-04-17 10:03:00,
2013-04-17 06:12:00,52.0,52.0,-100.00,ESE,104,0.0,1.0,100,0.00,,,0.00,0.000000,,2013-04-17 10:12:00,
2013-04-17 06:43:00,51.0,51.0,-100.00,ESE,104,0.0,0.0,100,0.00,,,0.00,0.000000,,2013-04-17 10:43:00,
2013-04-17 06:53:00,51.0,51.0,-100.00,ESE,104,0.0,0.0,100,0.00,,,0.00,0.000000,,2013-04-17 10:53:00,
2013-04-17 07:02:00,51.0,51.0,-100.00,ESE,104,0.0,0.0,100,0.00,,,0.00,0.000000,,2013-04-17 11:02:00,
2013-04-17 07:12:00,51.0,51.0,-100.00,ESE,104,0.0,0.0,100,0.00,,,0.00,0.000000,,2013-04-17 11:12:00,
2013-04-17 07:32:00,52.0,52.0,-100.00,ESE,104,0.0,0.0,100,0.00,,,0.00,16.000000,,2013-04-17 11:32:00,
2013-04-17 07:42:00,52.0,52.0,-100.00,ESE,104,0.0,0.0,100,0.00,,,0.00,16.000000,,2013-04-17 11:42:00,
2013-04-17 07:52:00,52.0,52.0,-100.00,ESE,104,0.0,0.0,100,0.00,,,0.00,16.000000,,2013-04-17 11:52:00,
2013-04-17 08:03:00,52.0,52.0,-100.00,ESE,104,0.0,0.0,100,0.00,,,0.00,16.000000,,2013-04-17 12:03:00,
2013-04-17 08:12:00,52.0,52.0,-100.00,ESE,104,0.0,0.0,100,0.00,,,0.00,16.000000,,2013-04-17 12:12:00,
2013-04-17 08:42:00,59.0,59.0,-100.00,ESE,104,0.0,0.0,100,0.00,,,0.00,68.000000,,2013-04-17 12:42:00,
2013-04-17 08:52:00,59.0,59.0,-100.00,ESE,104,0.0,0.0,100,0.00,,,0.00,68.000000,,2013-04-17 12:52:00,
2013-04-17 09:02:00,59.0,59.0,-100.00,ESE,104,0.0,0.0,100,0.00,,,0.00,68.000000,,2013-04-17 13:02:00,
2013-04-17 09:12:00,59.0,59.0,-100.00,ESE,104,0.0,0.0,100,0.00,,,0.00,68.000000,,2013-04-17 13:12:00,
2013-04-17 09:52:00,72.0,67.0,-100.00,SSE,161,0.0,4.0,84,0.00,,,0.00,386.000000,,2013-04-17 13:52:00,
2013-04-17 10:02:00,72.0,67.0,-100.00,SSE,161,0.0,4.0,84,0.00,,,0.00,386.000000,,2013-04-17 14:02:00,
2013-04-17 10:12:00,72.0,67.0,-100.00,SSE,161,0.0,4.0,84,0.00,,,0.00,386.000000,,2013-04-17 14:12:00,
2013-04-17 10:43:00,76.0,63.0,-100.00,ENE,59,2.0,6.0,65,0.00,,,0.00,601.000000,,2013-04-17 14:43:00,
2013-04-17 10:52:00,76.0,63.0,-100.00,ENE,59,2.0,6.0,65,0.00,,,0.00,601.000000,,2013-04-17 14:52:00,
2013-04-17 11:02:00,76.0,63.0,-100.00,ENE,59,2.0,6.0,65,0.00,,,0.00,601.000000,,2013-04-17 15:02:00,
2013-04-17 11:12:00,76.0,63.0,-100.00,ENE,59,2.0,6.0,65,0.00,,,0.00,601.000000,,2013-04-17 15:12:00,
2013-04-17 11:33:00,78.0,62.0,-100.00,NW,314,3.0,7.0,59,0.00,,,0.00,801.000000,,2013-04-17 15:33:00,
2013-04-17 11:43:00,78.0,62.0,-100.00,NW,314,3.0,7.0,59,0.00,,,0.00,801.000000,,2013-04-17 15:43:00,
2013-04-17 11:53:00,78.0,62.0,-100.00,NW,314,3.0,7.0,59,0.00,,,0.00,801.000000,,2013-04-17 15:53:00,
2013-04-17 12:03:00,78.0,62.0,-100.00,NW,314,3.0,7.0,59,0.00,,,0.00,801.000000,,2013-04-17 16:03:00,
2013-04-17 12:12:00,78.0,62.0,-100.00,NW,314,3.0,7.0,59,0.00,,,0.00,801.000000,,2013-04-17 16:12:00,
2013-04-17 12:32:00,78.0,62.0,-100.00,NW,322,3.0,7.0,58,0.00,,,0.00,571.000000,,2013-04-17 16:32:00,
2013-04-17 12:42:00,78.0,62.0,-100.00,NW,322,3.0,7.0,58,0.00,,,0.00,571.000000,,2013-04-17 16:42:00,
2013-04-17 12:52:00,78.0,62.0,-100.00,NW,322,3.0,7.0,58,0.00,,,0.00,571.000000,,2013-04-17 16:52:00,
2013-04-17 13:02:00,78.0,62.0,-100.00,NW,322,3.0,7.0,58,0.00,,,0.00,571.000000,,2013-04-17 17:02:00,
2013-04-17 13:12:00,78.0,62.0,-100.00,NW,322,3.0,7.0,58,0.00,,,0.00,571.000000,,2013-04-17 17:12:00,
2013-04-17 13:33:00,77.0,63.0,-100.00,SSW,192,5.0,9.0,61,0.00,,,0.00,398.000000,,2013-04-17 17:33:00,
2013-04-17 13:42:00,77.0,63.0,-100.00,SSW,192,5.0,9.0,61,0.00,,,0.00,398.000000,,2013-04-17 17:42:00,
2013-04-17 13:52:00,77.0,63.0,-100.00,SSW,192,5.0,9.0,61,0.00,,,0.00,398.000000,,2013-04-17 17:52:00,
2013-04-17 14:02:00,77.0,63.0,-100.00,SSW,192,5.0,9.0,61,0.00,,,0.00,398.000000,,2013-04-17 18:02:00,
2013-04-17 14:12:00,77.0,63.0,-100.00,SSW,192,5.0,9.0,61,0.00,,,0.00,398.000000,,2013-04-17 18:12:00,
2013-04-17 14:33:00,80.0,62.0,-100.00,SSE,151,6.0,9.0,54,0.00,,,0.00,753.000000,,2013-04-17 18:33:00,
2013-04-17 14:42:00,80.0,62.0,-100.00,SSE,151,6.0,9.0,54,0.00,,,0.00,753.000000,,2013-04-17 18:42:00,
2013-04-17 14:52:00,80.0,62.0,-100.00,SSE,151,6.0,9.0,54,0.00,,,0.00,753.000000,,2013-04-17 18:52:00,
2013-04-17 15:02:00,80.0,62.0,-100.00,SSE,151,6.0,9.0,54,0.00,,,0.00,753.000000,,2013-04-17 19:02:00,
2013-04-17 15:12:00,80.0,62.0,-100.00,SSE,151,6.0,9.0,54,0.00,,,0.00,753.000000,,2013-04-17 19:12:00,
2013-04-17 15:42:00,80.0,61.0,-100.00,SSE,159,6.0,11.0,53,0.00,,,0.00,854.000000,,2013-04-17 19:42:00,
2013-04-17 15:52:00,80.0,61.0,-100.00,SSE,159,6.0,11.0,53,0.00,,,0.00,854.000000,,2013-04-17 19:52:00,
2013-04-17 16:03:00,80.0,61.0,-100.00,SSE,159,6.0,11.0,53,0.00,,,0.00,854.000000,,2013-04-17 20:03:00,
2013-04-17 16:12:00,80.0,61.0,-100.00,SSE,159,6.0,11.0,53,0.00,,,0.00,854.000000,,2013-04-17 20:12:00,
2013-04-17 16:33:00,78.0,61.0,-100.00,SSE,162,6.0,12.0,55,0.00,,,0.00,732.000000,,2013-04-17 20:33:00,
2013-04-17 16:42:00,78.0,61.0,-100.00,SSE,162,6.0,12.0,55,0.00,,,0.00,732.000000,,2013-04-17 20:42:00,
2013-04-17 16:52:00,78.0,61.0,-100.00,SSE,162,6.0,12.0,55,0.00,,,0.00,732.000000,,2013-04-17 20:52:00,
2013-04-17 17:03:00,78.0,61.0,-100.00,SSE,162,6.0,12.0,55,0.00,,,0.00,732.000000,,2013-04-17 21:03:00,
2013-04-17 17:12:00,78.0,61.0,-100.00,SSE,162,6.0,12.0,55,0.00,,,0.00,732.000000,,2013-04-17 21:12:00,
2013-04-17 17:43:00,77.0,60.0,-100.00,SE,129,5.0,11.0,56,0.00,,,0.00,429.000000,,2013-04-17 21:43:00,
2013-04-17 17:53:00,77.0,60.0,-100.00,SE,129,5.0,11.0,56,0.00,,,0.00,429.000000,,2013-04-17 21:53:00,
2013-04-17 18:02:00,77.0,60.0,-100.00,SE,129,5.0,11.0,56,0.00,,,0.00,429.000000,,2013-04-17 22:02:00,
2013-04-17 18:13:00,77.0,60.0,-100.00,SE,129,5.0,11.0,56,0.00,,,0.00,429.000000,,2013-04-17 22:13:00,
2013-04-17 18:43:00,75.0,57.0,-100.00,SSE,162,6.0,11.0,54,0.00,,,0.00,231.000000,,2013-04-17 22:43:00,
2013-04-17 18:53:00,75.0,57.0,-100.00,SSE,162,6.0,11.0,54,0.00,,,0.00,231.000000,,2013-04-17 22:53:00,
2013-04-17 19:02:00,75.0,57.0,-100.00,SSE,162,6.0,11.0,54,0.00,,,0.00,231.000000,,2013-04-17 23:02:00,
2013-04-17 19:12:00,75.0,57.0,-100.00,SSE,162,6.0,11.0,54,0.00,,,0.00,231.000000,,2013-04-17 23:12:00,
2013-04-17 19:42:00,70.0,57.0,-100.00,SSE,161,3.0,9.0,64,0.00,,,0.00,77.000000,,2013-04-17 23:42:00,
2013-04-17 19:52:00,70.0,57.0,-100.00,SSE,161,3.0,9.0,64,0.00,,,0.00,77.000000,,2013-04-17 23:52:00,
2013-04-17 20:02:00,70.0,57.0,-100.00,SSE,161,3.0,9.0,64,0.00,,,0.00,77.000000,,2013-04-18 00:02:00,
2013-04-17 20:12:00,70.0,57.0,-100.00,SSE,161,3.0,9.0,64,0.00,,,0.00,77.000000,,2013-04-18 00:12:00,
2013-04-17 20:43:00,65.0,60.0,-100.00,SE,132,1.0,5.0,84,0.00,,,0.00,4.000000,,2013-04-18 00:43:00,
2013-04-17 20:52:00,65.0,60.0,-100.00,SE,132,1.0,5.0,84,0.00,,,0.00,4.000000,,2013-04-18 00:52:00,
2013-04-17 21:02:00,65.0,60.0,-100.00,SE,132,1.0,5.0,84,0.00,,,0.00,4.000000,,2013-04-18 01:02:00,
2013-04-17 21:12:00,65.0,60.0,-100.00,SE,132,1.0,5.0,84,0.00,,,0.00,4.000000,,2013-04-18 01:12:00,
2013-04-17 21:32:00,63.0,61.0,-100.00,SE,142,1.0,4.0,93,0.00,,,0.00,0.000000,,2013-04-18 01:32:00,
2013-04-17 21:42:00,63.0,61.0,-100.00,SE,142,1.0,4.0,93,0.00,,,0.00,0.000000,,2013-04-18 01:42:00,
2013-04-17 21:52:00,63.0,61.0,-100.00,SE,142,1.0,4.0,93,0.00,,,0.00,0.000000,,2013-04-18 01:52:00,
2013-04-17 22:02:00,63.0,61.0,-100.00,SE,142,1.0,4.0,93,0.00,,,0.00,0.000000,,2013-04-18 02:02:00,
2013-04-17 22:12:00,63.0,61.0,-100.00,SE,142,1.0,4.0,93,0.00,,,0.00,0.000000,,2013-04-18 02:12:00,
2013-04-17 22:32:00,62.0,61.0,-100.00,SSE,150,1.0,4.0,96,0.00,,,0.00,0.000000,,2013-04-18 02:32:00,
2013-04-17 22:42:00,62.0,61.0,-100.00,SSE,150,1.0,4.0,96,0.00,,,0.00,0.000000,,2013-04-18 02:42:00,
2013-04-17 22:52:00,62.0,61.0,-100.00,SSE,150,1.0,4.0,96,0.00,,,0.00,0.000000,,2013-04-18 02:52:00,
2013-04-17 23:02:00,62.0,61.0,-100.00,SSE,150,1.0,4.0,96,0.00,,,0.00,0.000000,,2013-04-18 03:02:00,
2013-04-17 23:12:00,62.0,61.0,-100.00,SSE,150,1.0,4.0,96,0.00,,,0.00,0.000000,,2013-04-18 03:12:00,
2013-04-17 23:43:00,62.0,61.0,-100.00,SSE,163,0.0,4.0,98,0.00,,,0.00,0.000000,,2013-04-18 03:43:00,
2013-04-17 23:53:00,62.0,61.0,-100.00,SSE,163,0.0,4.0,98,0.00,,,0.00,0.000000,,2013-04-18 03:53:00,